Time;durP1;ratioP1;P1;durP2;ratioP2;P2;SDS_P1;SDS_P2;PMS_P1;PMS_P2;Temp;Humidity;BMP_temperature;BMP_pressure;BME280_temperature;BME280_humidity;BME280_pressure;Samples;Min_cycle;Max_cycle;Signal;HPM_P1;HPM_P2
2022/01/04 00:00:06;;;;;;;6.47;2.62;;;;;;;6.61;67.18;96409.07;1744637;80;28203;-89
2022/01/04 00:02:34;;;;;;;4.87;2.22;;;;;;;6.57;67.58;96401.13;1752667;81;25818;-89
2022/01/04 00:05:01;;;;;;;6.70;2.92;;;;;;;6.58;67.91;96396.08;1753301;81;26125;-90
2022/01/04 00:07:28;;;;;;;5.60;2.83;;;;;;;6.57;68.11;96389.58;1752753;80;26053;-91
2022/01/04 00:09:54;;;;;;;8.28;2.90;;;;;;;6.56;68.33;96387.93;1753050;81;25685;-91
2022/01/04 00:15:07;;;;;;;7.28;3.52;;;;;;;6.54;68.60;96382.77;1752631;81;25844;-91
2022/01/04 00:17:35;;;;;;;6.92;2.60;;;;;;;6.47;68.58;96380.64;1752384;80;25747;-93
2022/01/04 00:20:04;;;;;;;7.53;2.85;;;;;;;6.39;68.71;96379.02;1752436;80;26109;-94
2022/01/04 00:22:30;;;;;;;6.35;2.70;;;;;;;6.37;68.93;96382.94;1752387;81;25707;-91
2022/01/04 00:24:57;;;;;;;7.17;2.70;;;;;;;6.33;69.07;96379.84;1752071;81;27435;-90
2022/01/04 00:27:24;;;;;;;8.25;3.15;;;;;;;6.34;69.21;96380.16;1752299;81;25846;-89
2022/01/04 00:29:51;;;;;;;6.78;3.22;;;;;;;6.34;69.40;96376.66;1752392;81;25705;-89
2022/01/04 00:32:17;;;;;;;8.65;3.37;;;;;;;6.34;69.65;96382.02;1752392;81;26007;-89
2022/01/04 00:34:44;;;;;;;5.90;3.08;;;;;;;6.38;69.78;96372.02;1752398;81;25744;-88
2022/01/04 00:37:11;;;;;;;5.75;3.02;;;;;;;6.41;69.86;96364.87;1752361;81;27344;-89
2022/01/04 00:39:37;;;;;;;6.47;3.12;;;;;;;6.43;69.88;96364.15;1752201;81;25662;-88
2022/01/04 00:42:05;;;;;;;8.68;3.55;;;;;;;6.44;69.90;96364.97;1752235;81;25769;-89
2022/01/04 00:44:31;;;;;;;7.70;3.85;;;;;;;6.43;69.88;96368.69;1752339;81;25987;-88
2022/01/04 00:46:59;;;;;;;7.50;3.75;;;;;;;6.41;69.98;96365.39;1752330;81;25791;-89
2022/01/04 00:49:26;;;;;;;6.70;3.58;;;;;;;6.41;70.00;96358.69;1752330;81;27416;-89
2022/01/04 00:51:53;;;;;;;6.10;3.20;;;;;;;6.38;70.10;96352.42;1752242;81;25670;-88
2022/01/04 00:54:21;;;;;;;6.28;3.50;;;;;;;6.40;70.07;96351.70;1752282;81;26432;-90
2022/01/04 00:56:49;;;;;;;7.00;3.77;;;;;;;6.39;70.19;96348.72;1752330;81;26998;-92
2022/01/04 00:59:17;;;;;;;11.28;3.25;;;;;;;6.40;70.24;96351.70;1752434;81;25784;-90
2022/01/04 01:01:44;;;;;;;5.80;2.77;;;;;;;6.37;70.17;96349.44;1752212;81;28270;-92
2022/01/04 01:04:11;;;;;;;6.75;3.30;;;;;;;6.37;70.36;96346.75;1752278;81;26037;-92
2022/01/04 01:06:38;;;;;;;6.45;2.87;;;;;;;6.35;70.38;96348.82;1752385;81;25762;-91
2022/01/04 01:09:06;;;;;;;6.58;2.95;;;;;;;6.33;70.45;96341.50;1752409;81;26006;-91
2022/01/04 01:11:32;;;;;;;6.08;2.90;;;;;;;6.34;70.54;96344.48;1752342;81;25738;-89
2022/01/04 01:13:59;;;;;;;5.53;3.25;;;;;;;6.32;70.54;96338.51;1752121;81;27463;-91
2022/01/04 01:16:26;;;;;;;4.60;2.80;;;;;;;6.32;70.69;96336.66;1752099;81;26279;-90
2022/01/04 01:18:52;;;;;;;4.72;2.45;;;;;;;6.33;70.72;96326.76;1752890;81;25955;-91
2022/01/04 01:21:19;;;;;;;5.12;2.75;;;;;;;6.33;70.73;96321.40;1752885;81;26113;-90
2022/01/04 01:23:46;;;;;;;3.85;2.42;;;;;;;6.34;70.79;96315.83;1739767;81;26725;-90
2022/01/04 01:26:12;;;;;;;4.03;2.50;;;;;;;6.36;70.81;96315.62;1750335;81;27434;-90
2022/01/04 01:28:39;;;;;;;3.72;2.10;;;;;;;6.35;70.90;96313.97;1748256;82;25275;-90
2022/01/04 01:31:08;;;;;;;3.22;2.15;;;;;;;6.31;70.92;96310.06;1748119;81;26412;-89
2022/01/04 01:33:35;;;;;;;4.15;2.27;;;;;;;6.28;71.09;96309.95;1748348;81;26160;-90
2022/01/04 01:36:01;;;;;;;3.45;1.82;;;;;;;6.26;71.27;96304.53;1748327;82;25757;-90
2022/01/04 01:38:28;;;;;;;2.75;2.15;;;;;;;6.23;71.48;96308.45;1748344;82;26994;-90
2022/01/04 01:40:54;;;;;;;3.20;2.05;;;;;;;6.25;71.58;96294.84;1748223;82;25268;-92
2022/01/04 01:43:24;;;;;;;2.25;1.80;;;;;;;6.20;71.73;96284.74;1748280;81;25758;-91
2022/01/04 01:45:51;;;;;;;3.70;1.80;;;;;;;6.17;71.84;96281.66;1748341;81;26175;-91
2022/01/04 01:48:18;;;;;;;5.15;1.87;;;;;;;6.12;71.91;96280.45;1748367;82;25813;-91
2022/01/04 01:50:45;;;;;;;4.05;2.10;;;;;;;6.06;71.96;96278.59;1748263;81;27513;-89
2022/01/04 01:53:12;;;;;;;3.52;2.33;;;;;;;6.03;72.22;96279.04;1748235;82;25976;-90
2022/01/04 01:55:38;;;;;;;3.60;2.45;;;;;;;6.03;72.41;96271.00;1748392;82;25689;-90
2022/01/04 01:58:05;;;;;;;2.62;2.08;;;;;;;6.00;72.54;96273.27;1748262;82;26138;-88
2022/01/04 02:00:32;;;;;;;3.12;1.55;;;;;;;5.93;72.47;96270.59;1748427;81;25731;-90
2022/01/04 02:02:59;;;;;;;3.00;1.60;;;;;;;5.78;72.74;96263.30;1748007;81;27420;-90
2022/01/04 02:05:26;;;;;;;2.58;1.37;;;;;;;5.79;72.95;96256.92;1748258;82;25256;-89
2022/01/04 02:07:53;;;;;;;1.27;1.10;;;;;;;5.68;73.02;96257.53;1748358;82;25669;-89
2022/01/04 02:10:20;;;;;;;2.17;1.30;;;;;;;5.64;73.16;96252.30;1748360;81;26464;-89
2022/01/04 02:12:49;;;;;;;3.65;2.00;;;;;;;5.61;73.35;96260.23;1748088;82;26274;-90
2022/01/04 02:15:24;;;;;;;3.25;1.90;;;;;;;5.65;73.51;96248.08;1748456;80;28261;-90
2022/01/04 02:17:51;;;;;;;4.42;2.15;;;;;;;5.71;73.70;96235.70;1749054;81;25935;-90
2022/01/04 02:20:19;;;;;;;3.37;1.30;;;;;;;5.74;73.78;96239.30;1750371;81;25705;-90
2022/01/04 02:22:48;;;;;;;2.92;1.27;;;;;;;5.72;73.88;96231.98;1750389;81;26947;-89
2022/01/04 02:25:15;;;;;;;2.62;1.25;;;;;;;5.67;73.87;96234.49;1750543;81;25765;-90
2022/01/04 02:27:42;;;;;;;2.20;1.22;;;;;;;5.62;73.99;96225.73;1750519;81;27530;-90
2022/01/04 02:30:16;;;;;;;3.33;1.40;;;;;;;5.62;74.06;96228.41;1750455;81;26352;-89
2022/01/04 02:32:46;;;;;;;2.08;1.32;;;;;;;5.61;74.23;96218.73;1750436;81;25816;-91
2022/01/04 02:35:15;;;;;;;2.25;1.35;;;;;;;5.57;74.29;96219.34;1750332;81;25973;-89
2022/01/04 02:37:42;;;;;;;2.00;1.32;;;;;;;5.57;74.40;96215.33;1750407;81;25819;-89
2022/01/04 02:40:10;;;;;;;2.55;1.47;;;;;;;5.56;74.41;96215.02;1751852;81;28308;-89
2022/01/04 02:42:37;;;;;;;3.08;1.82;;;;;;;5.56;74.65;96205.14;1752238;80;25770;-89
2022/01/04 02:45:04;;;;;;;3.47;1.98;;;;;;;5.56;74.79;96198.45;1752326;81;25705;-89
2022/01/04 02:47:31;;;;;;;4.28;2.33;;;;;;;5.60;74.92;96198.86;1752279;80;26824;-89
2022/01/04 02:49:58;;;;;;;3.60;1.70;;;;;;;5.62;74.96;96197.63;1752308;81;26521;-89
2022/01/04 02:52:24;;;;;;;3.45;1.92;;;;;;;5.64;75.08;96192.89;1752419;81;27364;-90
2022/01/04 02:54:51;;;;;;;3.72;2.08;;;;;;;5.66;75.14;96190.01;1752314;81;25797;-89
2022/01/04 02:57:17;;;;;;;3.87;2.55;;;;;;;5.59;75.13;96187.84;1752459;80;25717;-90
2022/01/04 02:59:44;;;;;;;2.50;1.65;;;;;;;5.57;75.26;96181.87;1752428;81;26922;-91
2022/01/04 03:02:11;;;;;;;2.77;1.60;;;;;;;5.56;75.34;96193.61;1752430;81;26418;-90
2022/01/04 03:04:37;;;;;;;5.05;2.58;;;;;;;5.58;75.52;96183.52;1752442;81;27214;-90
2022/01/04 03:07:04;;;;;;;2.70;1.20;;;;;;;5.58;75.57;96183.52;1752343;81;26008;-91
2022/01/04 03:09:31;;;;;;;2.72;1.50;;;;;;;5.50;75.49;96177.89;1752450;81;25818;-90
2022/01/04 03:11:57;;;;;;;2.10;1.25;;;;;;;5.49;75.62;96177.58;1752378;81;25873;-90
2022/01/04 03:14:24;;;;;;;2.87;1.32;;;;;;;5.49;75.79;96169.55;1752180;81;25702;-90
2022/01/04 03:16:50;;;;;;;2.65;1.40;;;;;;;5.50;75.80;96168.52;1752413;81;28317;-90
2022/01/04 03:19:17;;;;;;;2.25;1.50;;;;;;;5.54;75.78;96168.93;1757768;80;25734;-90
2022/01/04 03:21:44;;;;;;;1.52;1.30;;;;;;;5.54;75.85;96160.39;1758919;80;25677;-90
2022/01/04 03:24:13;;;;;;;2.25;1.47;;;;;;;5.57;75.90;96163.13;1758879;81;26142;-89
2022/01/04 03:26:41;;;;;;;2.77;1.60;;;;;;;5.58;75.98;96158.91;1758880;81;25716;-91
2022/01/04 03:29:10;;;;;;;1.55;1.10;;;;;;;5.58;76.01;96151.39;1758914;80;28408;-90
2022/01/04 03:31:37;;;;;;;2.15;1.30;;;;;;;5.58;75.94;96150.06;1758758;81;25725;-89
2022/01/04 03:34:05;;;;;;;2.62;1.70;;;;;;;5.58;76.03;96138.02;1758868;80;25789;-90
2022/01/04 03:36:33;;;;;;;1.95;1.37;;;;;;;5.58;76.12;96127.30;1758767;81;26903;-89
2022/01/04 03:39:04;;;;;;;2.50;1.85;;;;;;;5.61;76.16;96127.72;1758910;81;25720;-89
2022/01/04 03:41:29;;;;;;;2.55;1.70;;;;;;;5.64;76.21;96117.93;1758786;80;27560;-88
2022/01/04 03:43:55;;;;;;;3.12;1.62;;;;;;;5.66;76.16;96119.88;1758848;81;25844;-89
2022/01/04 03:46:22;;;;;;;3.55;1.90;;;;;;;5.63;76.20;96114.95;1758870;81;25251;-89
2022/01/04 03:48:49;;;;;;;3.08;1.60;;;;;;;5.60;76.25;96119.89;1758933;81;26223;-89
2022/01/04 03:51:17;;;;;;;3.60;2.12;;;;;;;5.60;76.36;96117.22;1758811;81;25739;-89
2022/01/04 03:53:43;;;;;;;2.75;2.20;;;;;;;5.58;76.44;96119.27;1758777;80;27620;-89
2022/01/04 03:56:10;;;;;;;2.67;1.85;;;;;;;5.60;76.48;96114.02;1758788;80;26346;-90
2022/01/04 03:58:36;;;;;;;3.30;2.22;;;;;;;5.61;76.51;96114.84;1758810;81;25712;-89
2022/01/04 04:01:04;;;;;;;2.98;2.22;;;;;;;5.58;76.52;96116.08;1758718;80;26103;-89
2022/01/04 04:03:32;;;;;;;3.85;2.12;;;;;;;5.58;76.54;96116.59;1758816;81;25801;-89
2022/01/04 04:05:59;;;;;;;3.47;2.25;;;;;;;5.58;76.60;96114.74;1758770;81;27614;-88
2022/01/04 04:08:25;;;;;;;3.62;2.10;;;;;;;5.62;76.66;96111.14;1758748;80;25760;-88
2022/01/04 04:10:52;;;;;;;3.65;2.35;;;;;;;5.61;76.66;96108.16;1758618;80;25742;-88
2022/01/04 04:13:19;;;;;;;3.55;2.22;;;;;;;5.60;76.70;96101.16;1758435;81;26126;-87
2022/01/04 04:15:46;;;;;;;3.15;2.27;;;;;;;5.63;76.79;96102.08;1758901;80;25728;-88
2022/01/04 04:18:13;;;;;;;6.28;2.27;;;;;;;5.70;76.74;96104.20;1756918;81;27520;-88
2022/01/04 04:20:42;;;;;;;5.37;2.67;;;;;;;5.76;76.70;96098.01;1752812;81;26141;-88
2022/01/04 04:23:10;;;;;;;3.83;2.70;;;;;;;5.77;76.62;96100.48;1752963;81;25679;-89
2022/01/04 04:25:37;;;;;;;3.12;2.62;;;;;;;5.79;76.66;96092.23;1752930;81;26145;-89
2022/01/04 04:28:04;;;;;;;4.17;2.95;;;;;;;5.78;76.65;96092.75;1752996;81;25746;-90
2022/01/04 04:30:31;;;;;;;3.15;2.37;;;;;;;5.73;76.68;96098.42;1748572;81;27316;-89
2022/01/04 04:32:57;;;;;;;4.45;3.20;;;;;;;5.70;76.74;96093.48;1748526;81;26579;-88
2022/01/04 04:35:24;;;;;;;5.55;3.02;;;;;;;5.68;76.82;96094.21;1752956;81;25710;-89
2022/01/04 04:37:51;;;;;;;6.47;3.30;;;;;;;5.68;76.87;96092.36;1752905;81;25886;-89
2022/01/04 04:40:17;;;;;;;3.92;3.00;;;;;;;5.67;76.87;96104.64;1752901;81;25788;-89
2022/01/04 04:42:44;;;;;;;6.03;2.80;;;;;;;5.67;76.94;96105.98;1752879;81;28006;-88
2022/01/04 04:45:11;;;;;;;5.15;3.20;;;;;;;5.63;76.95;96100.73;1752823;81;26434;-89
2022/01/04 04:47:38;;;;;;;4.33;3.60;;;;;;;5.61;77.00;96098.78;1739632;81;25804;-88
2022/01/04 04:50:06;;;;;;;4.70;3.37;;;;;;;5.55;77.08;96093.78;1752878;81;26142;-89
2022/01/04 04:52:32;;;;;;;4.45;3.42;;;;;;;5.52;77.20;96091.52;1752983;81;25298;-90
2022/01/04 04:54:59;;;;;;;6.55;4.47;;;;;;;5.53;77.28;96091.00;1752877;81;28166;-88
2022/01/04 04:57:26;;;;;;;7.22;4.78;;;;;;;5.55;77.37;96079.57;1752791;81;25666;-91
2022/01/04 04:59:52;;;;;;;4.92;4.17;;;;;;;5.54;77.34;96069.89;1752934;81;26010;-88
2022/01/04 05:02:19;;;;;;;8.73;5.00;;;;;;;5.54;77.37;96073.91;1752867;81;26360;-90
2022/01/04 05:04:45;;;;;;;11.22;7.53;;;;;;;5.54;77.34;96068.56;1752916;81;25729;-90
2022/01/04 05:07:12;;;;;;;14.73;8.90;;;;;;;5.52;77.40;96063.41;1752832;81;28419;-89
2022/01/04 05:09:39;;;;;;;15.45;11.55;;;;;;;5.51;77.44;96070.31;1752777;81;25809;-87
2022/01/04 05:12:07;;;;;;;21.73;15.60;;;;;;;5.44;77.44;96064.45;1752858;81;25873;-89
2022/01/04 05:14:34;;;;;;;14.60;12.00;;;;;;;5.43;77.56;96060.13;1752844;81;26651;-89
2022/01/04 05:17:00;;;;;;;13.48;10.43;;;;;;;5.46;77.59;96060.23;1752625;81;25793;-88
2022/01/04 05:19:27;;;;;;;12.13;7.97;;;;;;;5.48;77.62;96060.84;1756495;81;27519;-89
2022/01/04 05:21:53;;;;;;;13.53;8.58;;;;;;;5.45;77.53;96059.92;1758708;81;25805;-89
2022/01/04 05:24:20;;;;;;;12.93;7.75;;;;;;;5.41;77.57;96066.23;1758774;81;25790;-89
2022/01/04 05:26:47;;;;;;;13.62;8.65;;;;;;;5.36;77.57;96069.23;1758806;81;26580;-89
2022/01/04 05:29:13;;;;;;;11.60;8.00;;;;;;;5.35;77.74;96067.06;1758793;81;25339;-88
2022/01/04 05:31:40;;;;;;;12.07;7.60;;;;;;;5.32;77.72;96062.13;1758760;80;27534;-87
2022/01/04 05:34:06;;;;;;;17.10;10.20;;;;;;;5.31;77.77;96057.80;1758643;81;25260;-88
2022/01/04 05:36:33;;;;;;;15.48;9.63;;;;;;;5.28;77.80;96064.94;1758814;81;25813;-88
2022/01/04 05:39:00;;;;;;;22.37;15.00;;;;;;;5.28;77.79;96064.12;1758876;81;26723;-88
2022/01/04 05:41:27;;;;;;;23.75;15.05;;;;;;;5.25;77.84;96060.00;1758747;80;25758;-88
2022/01/04 05:43:53;;;;;;;28.17;16.02;;;;;;;5.25;77.87;96054.66;1758799;81;28335;-88
2022/01/04 05:46:20;;;;;;;28.35;15.68;;;;;;;5.27;77.84;96052.59;1758656;81;25670;-88
2022/01/04 05:48:47;;;;;;;31.25;18.60;;;;;;;5.27;77.73;96051.25;1758648;81;25726;-88
2022/01/04 05:51:13;;;;;;;31.30;18.20;;;;;;;5.25;77.66;96049.81;1758777;81;26122;-89
2022/01/04 05:53:40;;;;;;;27.32;18.27;;;;;;;5.24;77.68;96041.48;1758757;81;25714;-88
2022/01/04 05:56:06;;;;;;;40.83;23.98;;;;;;;5.20;77.64;96037.06;1758764;81;27045;-89
2022/01/04 05:58:33;;;;;;;42.17;25.82;;;;;;;5.18;77.57;96036.48;1758653;80;25666;-89
2022/01/04 06:01:00;;;;;;;48.20;26.40;;;;;;;5.14;77.55;96036.58;1758751;80;25698;-88
2022/01/04 06:03:27;;;;;;;45.48;25.80;;;;;;;5.13;77.60;96040.80;1758768;81;26737;-88
2022/01/04 06:05:54;;;;;;;42.40;26.75;;;;;;;5.09;77.57;96033.70;1758771;80;25727;-88
2022/01/04 06:08:22;;;;;;;44.65;26.75;;;;;;;5.06;77.70;96030.14;1758736;80;28370;-88
2022/01/04 06:10:51;;;;;;;41.63;24.57;;;;;;;5.07;77.71;96027.77;1758590;80;26080;-88
2022/01/04 06:16:03;;;;;;;37.17;23.65;;;;;;;4.99;77.70;96022.63;1758440;81;25901;-88
2022/01/04 06:18:30;;;;;;;38.48;24.72;;;;;;;4.99;77.86;96025.30;1758025;80;25252;-88
2022/01/04 06:20:57;;;;;;;32.93;21.05;;;;;;;4.95;77.75;96020.09;1752743;81;27311;-88
2022/01/04 06:23:23;;;;;;;36.40;21.90;;;;;;;4.94;77.82;96024.61;1752715;81;25810;-89
2022/01/04 06:25:52;;;;;;;31.90;19.90;;;;;;;4.91;77.75;96024.20;1752801;81;25769;-89
2022/01/04 06:28:20;;;;;;;30.27;19.02;;;;;;;4.88;77.81;96023.27;1752898;80;26159;-88
2022/01/04 06:30:51;;;;;;;31.50;20.23;;;;;;;4.83;77.91;96018.55;1752928;81;25794;-89
2022/01/04 06:33:21;;;;;;;31.52;19.98;;;;;;;4.83;77.89;96016.41;1753193;81;27350;-89
2022/01/04 06:35:49;;;;;;;31.05;19.32;;;;;;;4.78;77.91;96018.88;1752754;81;25766;-88
2022/01/04 06:38:17;;;;;;;30.27;18.73;;;;;;;4.76;78.05;96017.75;1753042;81;25773;-89
2022/01/04 06:40:43;;;;;;;31.87;19.60;;;;;;;4.79;78.10;96026.70;1752986;80;26166;-89
2022/01/04 06:43:10;;;;;;;28.42;17.92;;;;;;;4.80;78.08;96019.50;1752882;81;25746;-89
2022/01/04 06:45:37;;;;;;;30.80;19.20;;;;;;;4.80;78.12;96024.84;1752842;81;27208;-90
2022/01/04 06:48:04;;;;;;;32.70;19.73;;;;;;;4.82;78.22;96015.59;1752897;81;25651;-90
2022/01/04 06:50:31;;;;;;;30.48;18.90;;;;;;;4.83;78.24;96014.53;1752970;81;25793;-90
2022/01/04 06:52:58;;;;;;;15.32;10.45;;;;;;;4.85;78.36;96007.64;1752966;81;26003;-90
2022/01/04 06:55:25;;;;;;;19.57;12.07;;;;;;;4.91;78.54;95997.46;1753070;81;26301;-90
2022/01/04 06:57:51;;;;;;;19.05;11.30;;;;;;;4.97;78.56;95990.74;1752929;80;27602;-89
2022/01/04 07:00:18;;;;;;;16.45;10.23;;;;;;;4.99;78.55;95986.02;1752867;81;25753;-90
2022/01/04 07:02:45;;;;;;;14.47;8.78;;;;;;;4.99;78.54;95986.52;1752957;81;25816;-90
2022/01/04 07:05:12;;;;;;;15.63;8.93;;;;;;;5.00;78.61;95989.51;1752892;81;26976;-90
2022/01/04 07:07:39;;;;;;;11.75;7.20;;;;;;;5.06;78.68;95980.14;1752961;81;25814;-90
2022/01/04 07:10:07;;;;;;;11.35;6.62;;;;;;;5.10;78.69;95976.50;1752963;81;28041;-90
2022/01/04 07:12:33;;;;;;;9.80;5.47;;;;;;;5.12;78.74;95977.12;1752965;81;25765;-89
2022/01/04 07:15:00;;;;;;;10.50;6.92;;;;;;;5.14;78.75;95970.22;1752688;81;25281;-90
2022/01/04 07:17:26;;;;;;;9.18;5.97;;;;;;;5.15;78.77;95970.02;1752950;81;26943;-90
2022/01/04 07:19:53;;;;;;;8.10;5.10;;;;;;;5.20;78.83;95962.16;1752718;81;25773;-90
2022/01/04 07:22:19;;;;;;;7.53;4.58;;;;;;;5.26;78.89;95962.66;1752919;81;28462;-89
2022/01/04 07:24:46;;;;;;;9.38;5.30;;;;;;;5.33;78.88;95953.25;1752728;81;25865;-89
2022/01/04 07:27:12;;;;;;;9.18;6.05;;;;;;;5.39;78.87;95957.76;1752880;81;25702;-88
2022/01/04 07:29:39;;;;;;;17.52;8.70;;;;;;;5.46;78.80;95949.68;1752960;81;26102;-90
2022/01/04 07:32:06;;;;;;;17.05;8.85;;;;;;;5.53;78.77;95949.14;1753026;81;26273;-88
2022/01/04 07:34:33;;;;;;;11.88;5.10;;;;;;;5.59;78.70;95940.23;1752849;80;28241;-89
2022/01/04 07:36:59;;;;;;;3.42;1.75;;;;;;;5.64;78.55;95939.08;1752666;80;25763;-89
2022/01/04 07:39:26;;;;;;;2.37;1.32;;;;;;;5.72;78.32;95936.14;1753010;81;25701;-90
2022/01/04 07:41:54;;;;;;;3.67;2.02;;;;;;;5.82;78.25;95928.44;1752838;81;26303;-90
2022/01/04 07:44:20;;;;;;;2.02;1.40;;;;;;;5.91;78.15;95929.05;1752949;81;25736;-90
2022/01/04 07:46:47;;;;;;;2.40;1.30;;;;;;;5.98;77.97;95924.44;1753048;81;27419;-90
2022/01/04 07:49:15;;;;;;;5.37;1.30;;;;;;;6.04;77.78;95913.66;1752859;81;25299;-90
2022/01/04 07:51:42;;;;;;;2.67;1.45;;;;;;;6.11;77.62;95913.63;1753007;80;25753;-89
2022/01/04 07:54:09;;;;;;;2.65;1.57;;;;;;;6.18;77.45;95914.89;1752918;81;25921;-89
2022/01/04 07:56:35;;;;;;;1.77;1.27;;;;;;;6.26;77.37;95918.65;1752954;81;25966;-90
2022/01/04 07:59:03;;;;;;;2.52;1.45;;;;;;;6.31;77.25;95910.75;1752959;81;27428;-88
2022/01/04 08:01:29;;;;;;;2.83;1.60;;;;;;;6.36;77.06;95913.59;1752876;81;25811;-89
2022/01/04 08:03:57;;;;;;;4.90;2.65;;;;;;;6.42;77.03;95897.95;1752863;81;25750;-86
2022/01/04 08:06:23;;;;;;;4.03;3.00;;;;;;;6.43;77.24;95894.23;1752884;81;26896;-89
2022/01/04 08:08:50;;;;;;;3.95;2.80;;;;;;;6.45;77.34;95882.26;1752902;81;25738;-89
2022/01/04 08:11:16;;;;;;;4.47;2.50;;;;;;;6.50;77.43;95878.41;1752925;81;27354;-88
2022/01/04 08:13:43;;;;;;;5.33;3.12;;;;;;;6.54;77.34;95868.03;1752773;81;26012;-89
2022/01/04 08:16:09;;;;;;;5.05;3.10;;;;;;;6.59;77.19;95872.73;1752945;81;26604;-88
2022/01/04 08:18:36;;;;;;;5.83;2.52;;;;;;;6.63;77.28;95876.09;1752532;80;26058;-88
2022/01/04 08:21:04;;;;;;;3.92;3.00;;;;;;;6.66;77.39;95875.63;1752631;81;25796;-88
2022/01/04 08:23:30;;;;;;;5.85;3.77;;;;;;;6.69;77.42;95868.48;1752783;81;27676;-88
2022/01/04 08:25:57;;;;;;;6.62;4.65;;;;;;;6.72;77.39;95858.66;1752734;81;26290;-89
2022/01/04 08:28:24;;;;;;;9.90;6.80;;;;;;;6.76;77.37;95851.78;1752890;80;25864;-89
2022/01/04 08:30:50;;;;;;;11.33;7.50;;;;;;;6.79;77.37;95848.66;1752920;81;26030;-88
2022/01/04 08:33:17;;;;;;;12.50;8.30;;;;;;;6.82;77.49;95842.03;1752860;80;26507;-89
2022/01/04 08:35:44;;;;;;;14.78;8.20;;;;;;;6.83;77.46;95847.17;1752832;81;28423;-88
2022/01/04 08:38:11;;;;;;;11.38;7.70;;;;;;;6.85;77.34;95838.38;1752854;80;26431;-88
2022/01/04 08:40:38;;;;;;;8.43;5.42;;;;;;;6.83;77.28;95819.01;1752871;81;25681;-88
2022/01/04 08:43:05;;;;;;;9.33;4.62;;;;;;;6.83;77.14;95817.67;1752903;81;26014;-87
2022/01/04 08:45:33;;;;;;;9.38;4.70;;;;;;;6.86;77.02;95811.86;1752835;81;25751;-90
2022/01/04 08:47:59;;;;;;;7.87;4.62;;;;;;;6.92;76.95;95807.95;1752613;81;28327;-90
2022/01/04 08:50:27;;;;;;;8.68;4.55;;;;;;;6.95;76.76;95810.19;1752684;80;26059;-90
2022/01/04 08:52:55;;;;;;;16.05;10.25;;;;;;;6.98;76.92;95811.09;1752893;81;25774;-91
2022/01/04 08:55:24;;;;;;;13.35;7.58;;;;;;;6.95;76.98;95802.14;1752925;81;26171;-88
2022/01/04 08:57:51;;;;;;;5.78;3.87;;;;;;;6.96;76.89;95801.09;1752932;81;26361;-89
2022/01/04 09:00:18;;;;;;;4.92;3.08;;;;;;;6.99;76.69;95782.70;1753024;81;27364;-89
2022/01/04 09:02:45;;;;;;;4.58;2.77;;;;;;;6.98;76.58;95777.03;1752747;81;25872;-89
2022/01/04 09:05:12;;;;;;;4.87;2.98;;;;;;;7.01;76.50;95769.02;1752891;81;25717;-89
2022/01/04 09:07:39;;;;;;;5.00;3.10;;;;;;;7.07;76.44;95772.16;1752836;81;26220;-89
2022/01/04 09:10:07;;;;;;;7.37;3.02;;;;;;;7.12;76.22;95766.93;1752999;81;25642;-91
2022/01/04 09:12:51;;;;;;;5.87;3.10;;;;;;;7.16;76.08;95764.06;1752516;81;26029;-90
2022/01/04 09:15:32;;;;;;;4.72;2.65;;;;;;;7.21;75.90;95761.52;1751860;81;25777;-89
2022/01/04 09:20:46;;;;;;;4.60;2.30;;;;;;;7.32;75.87;95739.77;1752485;81;26046;-89
2022/01/04 09:23:18;;;;;;;3.98;2.42;;;;;;;7.38;75.68;95738.31;1753057;81;25747;-89
2022/01/04 09:25:49;;;;;;;5.92;2.98;;;;;;;7.43;75.59;95734.41;1753125;81;28076;-89
2022/01/04 09:28:17;;;;;;;4.70;2.60;;;;;;;7.48;75.50;95725.16;1752978;81;26027;-88
2022/01/04 09:30:47;;;;;;;3.92;2.22;;;;;;;7.48;75.41;95723.81;1752916;81;25793;-89
2022/01/04 09:33:13;;;;;;;2.92;2.17;;;;;;;7.52;75.31;95708.85;1752940;81;26245;-92
2022/01/04 09:35:41;;;;;;;3.35;1.62;;;;;;;7.57;75.23;95710.33;1752937;81;26239;-89
2022/01/04 09:38:08;;;;;;;2.55;1.70;;;;;;;7.62;75.07;95700.20;1752997;81;27609;-89
2022/01/04 09:40:36;;;;;;;5.28;1.98;;;;;;;7.65;74.92;95701.61;1752959;81;25732;-91
2022/01/04 09:43:07;;;;;;;1.92;1.40;;;;;;;7.68;74.90;95697.13;1752971;81;25703;-90
2022/01/04 09:45:34;;;;;;;2.08;1.20;;;;;;;7.69;74.77;95692.05;1753024;81;25984;-90
2022/01/04 09:48:01;;;;;;;1.92;1.07;;;;;;;7.72;74.67;95686.21;1752639;80;25712;-86
2022/01/04 09:50:29;;;;;;;2.27;1.52;;;;;;;7.76;74.59;95686.02;1752902;81;27595;-88
2022/01/04 09:52:56;;;;;;;2.37;1.30;;;;;;;7.79;74.51;95670.78;1752932;80;25302;-88
2022/01/04 09:55:23;;;;;;;2.05;1.00;;;;;;;7.81;74.40;95670.02;1752875;81;25759;-88
2022/01/04 09:57:50;;;;;;;3.00;1.30;;;;;;;7.82;74.33;95663.08;1752651;81;26193;-88
2022/01/04 10:00:18;;;;;;;2.12;1.22;;;;;;;7.87;74.26;95662.34;1752945;81;25765;-92
2022/01/04 10:02:53;;;;;;;1.42;1.30;;;;;;;7.90;74.07;95663.22;1753113;81;27407;-86
2022/01/04 10:05:25;;;;;;;2.55;1.10;;;;;;;7.92;73.86;95652.53;1753034;81;26011;-88
2022/01/04 10:08:05;;;;;;;1.52;1.07;;;;;;;7.93;73.83;95642.08;1753293;81;26019;-88
2022/01/04 10:10:35;;;;;;;3.95;1.50;;;;;;;7.95;73.76;95634.61;1752800;81;44242;-89
2022/01/04 10:13:10;;;;;;;5.83;3.22;;;;;;;7.99;73.62;95629.55;1753179;81;25270;-92
2022/01/04 10:15:45;;;;;;;2.30;1.60;;;;;;;8.03;73.57;95629.38;1752432;81;27444;-92
2022/01/04 10:18:23;;;;;;;2.98;1.50;;;;;;;8.08;73.44;95617.92;1753235;81;25635;-90
2022/01/04 10:21:04;;;;;;;6.17;3.20;;;;;;;8.11;73.34;95610.17;1752660;81;25769;-91
2022/01/04 10:23:31;;;;;;;3.40;1.90;;;;;;;8.13;73.21;95600.01;1752053;81;26893;-88
2022/01/04 10:26:06;;;;;;;3.60;2.27;;;;;;;8.17;73.10;95597.14;1752748;81;25804;-91
2022/01/04 10:28:40;;;;;;;25.95;10.72;;;;;;;8.19;72.97;95592.34;1752475;81;27601;-87
2022/01/04 10:31:11;;;;;;;19.17;9.70;;;;;;;8.22;72.79;95587.81;1752447;81;25733;-88
2022/01/04 10:33:38;;;;;;;28.07;12.20;;;;;;;8.26;72.74;95590.31;1752528;81;25828;-88
2022/01/04 10:36:11;;;;;;;6.37;3.55;;;;;;;8.32;72.72;95599.86;1752496;81;27011;-92
2022/01/04 10:38:46;;;;;;;5.43;2.90;;;;;;;8.36;72.58;95576.80;1752714;81;25289;-89
2022/01/04 10:41:25;;;;;;;7.67;3.87;;;;;;;8.38;72.46;95584.91;1752203;81;28266;-93
2022/01/04 10:44:00;;;;;;;12.68;5.35;;;;;;;8.46;72.46;95586.38;1752524;81;26449;-90
2022/01/04 10:46:43;;;;;;;12.58;5.75;;;;;;;8.52;72.41;95578.18;1752416;81;25686;-89
2022/01/04 10:49:19;;;;;;;7.40;3.83;;;;;;;8.60;72.28;95574.27;1752535;81;26257;-90
2022/01/04 10:52:07;;;;;;;6.92;2.70;;;;;;;8.69;72.25;95573.35;1752604;81;25768;-87
2022/01/04 10:54:33;;;;;;;4.42;2.10;;;;;;;8.74;72.05;95574.77;1752426;81;26844;-89
2022/01/04 10:57:11;;;;;;;4.92;2.33;;;;;;;8.82;71.99;95571.66;1752391;81;25714;-88
2022/01/04 10:59:38;;;;;;;4.25;1.92;;;;;;;8.89;71.93;95570.45;1752515;81;25801;-89
2022/01/04 11:02:04;;;;;;;5.47;2.35;;;;;;;8.92;71.85;95568.62;1752545;81;26210;-88
2022/01/04 11:04:31;;;;;;;2.37;1.70;;;;;;;8.96;71.76;95562.20;1752567;81;25715;-90
2022/01/04 11:07:01;;;;;;;2.67;1.50;;;;;;;8.98;71.58;95571.66;1752505;81;27432;-86
2022/01/04 11:09:29;;;;;;;2.12;1.42;;;;;;;8.98;71.42;95559.55;1752502;81;25817;-88
2022/01/04 11:11:56;;;;;;;3.77;2.10;;;;;;;9.02;71.35;95563.39;1752474;81;25780;-86
2022/01/04 11:14:25;;;;;;;3.47;1.92;;;;;;;9.05;71.32;95555.37;1752486;81;26592;-88
2022/01/04 11:16:52;;;;;;;1.55;1.25;;;;;;;9.09;71.19;95547.06;1752537;81;26513;-88
2022/01/04 11:19:19;;;;;;;4.30;2.47;;;;;;;9.12;71.20;95547.11;1752433;81;27526;-89
2022/01/04 11:21:48;;;;;;;2.42;1.45;;;;;;;9.14;71.00;95532.88;1752088;80;25374;-87
2022/01/04 11:24:19;;;;;;;4.80;2.55;;;;;;;9.17;71.01;95541.81;1752454;81;26392;-87
2022/01/04 11:26:48;;;;;;;1.62;1.30;;;;;;;9.22;70.88;95549.94;1752511;81;25993;-89
2022/01/04 11:29:17;;;;;;;2.27;1.35;;;;;;;9.23;70.72;95546.19;1752238;81;25843;-88
2022/01/04 11:32:00;;;;;;;3.22;2.00;;;;;;;9.23;70.62;95543.50;1752533;81;27462;-88
2022/01/04 11:34:55;;;;;;;3.05;1.50;;;;;;;9.22;70.57;95543.20;1747674;81;25754;-90
2022/01/04 11:37:24;;;;;;;1.95;1.47;;;;;;;9.22;70.53;95539.17;1752437;81;25761;-90
2022/01/04 11:39:52;;;;;;;4.47;2.10;;;;;;;9.21;70.43;95537.01;1752445;81;26211;-89
2022/01/04 11:42:35;;;;;;;3.75;2.25;;;;;;;9.25;70.37;95531.95;1752574;81;25745;-89
2022/01/04 11:45:07;;;;;;;2.65;1.87;;;;;;;9.25;70.27;95522.53;1748685;81;27435;-88
2022/01/04 11:47:35;;;;;;;;;;;;;;;9.26;70.26;95526.33;1754399;81;25811;-89
2022/01/04 11:50:20;;;;;;;4.03;2.20;;;;;;;9.24;69.99;95519.02;1741135;82;25717;-87